Latest Weather Observations for PORTABLE RFSNSW07

IDN60801

Issued at 10:12 am EST Monday 16 September 2019 (issued every 10 minutes, with the page automatically refreshed every 10 minutes)

About weather observations | Map of weather stations | Latest weather observations for NSW | Other Formats
Station Details ID: 250053 Name: PORTABLE RFSNSW07 Lat: -30.88 Lon: 152.41 Height: 175.0 m
Data from the previous 72 hours. | See also: Recent months for locations in New South Wales
Date/Time
EST
Temp
°C
App
Temp
°C
Dew
Point
°C
Rel
Hum
%
Delta-T
°C
Wind Press
QNH
hPa
Press
MSL
hPa
Rain since
9am
mm
Dir  Spd
km/h
Gust
km/h
Spd
kts
Gust
kts
16/10:00am 27.8 - -2.1 14 13.6 - - - - - - - 0.0
16/09:50am 27.2 - -1.2 15 13.1 - - - - - - - 0.0
16/09:40am 26.4 - -2.3 15 12.9 - - - - - - - 0.0
16/09:30am 25.0 - -1.8 17 12.0 - - - - - - - 0.0
16/09:20am 23.8 - 1.8 23 10.5 - - - - - - - 0.0
16/09:10am 22.3 - 4.9 32 8.7 - - - - - - - 0.0
16/09:00am 21.4 - 5.8 36 7.9 - - - - - - - 0.0
16/08:50am 20.1 - 6.7 41 6.8 - - - - - - - 0.0
16/08:40am 18.6 - 5.6 42 6.4 - - - - - - - 0.0
16/08:30am 17.3 - 5.7 46 5.7 - - - - - - - 0.0
16/08:20am 16.3 - 8.1 58 4.2 - - - - - - - 0.0
16/08:00am 13.6 - 8.3 70 2.7 - - - - - - - 0.0
16/07:50am 12.8 - 7.9 72 2.4 - - - - - - - 0.0
16/07:40am 11.9 - 7.6 75 2.1 - - - - - - - 0.0
16/07:30am 11.3 - 7.3 76 1.9 - - - - - - - 0.0
16/07:20am 10.3 - 6.9 79 1.6 - - - - - - - 0.0
16/07:10am 9.4 - 6.9 84 1.2 - - - - - - - 0.0
16/07:00am 8.5 - 6.4 87 1.0 - - - - - - - 0.0
16/06:50am 7.7 - 6.3 91 0.6 - - - - - - - 0.0
16/06:40am 6.6 - 5.9 95 0.3 - - - - - - - 0.0
16/06:30am 5.6 - 5.1 97 0.2 - - - - - - - 0.0
16/06:20am 5.1 - 4.6 97 0.2 - - - - - - - 0.0
16/06:10am 5.0 - 4.5 97 0.2 - - - - - - - 0.0
16/06:00am 4.7 - 4.2 97 0.2 - - - - - - - 0.0
16/05:50am 5.1 - 4.6 97 0.2 - - - - - - - 0.0
16/05:40am 5.3 - 4.8 97 0.2 - - - - - - - 0.0
16/05:30am 5.1 - 4.7 97 0.2 - - - - - - - 0.0
16/05:20am 5.7 - 5.2 97 0.2 - - - - - - - 0.0
16/05:10am 5.2 - 4.7 97 0.2 - - - - - - - 0.0
16/05:00am 5.6 - 5.1 97 0.2 - - - - - - - 0.0
16/04:50am 5.6 - 5.2 97 0.2 - - - - - - - 0.0
16/04:40am 5.5 - 5.0 97 0.2 - - - - - - - 0.0
16/04:30am 5.9 - 5.4 97 0.2 - - - - - - - 0.0
16/04:20am 5.4 - 4.9 97 0.2 - - - - - - - 0.0
16/04:10am 5.8 - 5.3 97 0.2 - - - - - - - 0.0
16/04:00am 6.0 - 5.5 97 0.2 - - - - - - - 0.0
16/03:50am 5.9 - 5.4 97 0.2 - - - - - - - 0.0
16/03:40am 6.4 - 5.9 97 0.2 - - - - - - - 0.0
16/03:30am 6.5 - 6.0 97 0.2 - - - - - - - 0.0
16/03:20am 6.6 - 6.1 97 0.2 - - - - - - - 0.0
16/03:10am 6.1 - 5.5 96 0.3 - - - - - - - 0.0
16/03:00am 6.2 - 5.6 96 0.3 - - - - - - - 0.0
16/02:50am 6.2 - 5.7 97 0.2 - - - - - - - 0.0
16/02:40am 6.4 - 5.8 96 0.3 - - - - - - - 0.0
16/02:30am 6.8 - 6.2 96 0.3 - - - - - - - 0.0
16/02:20am 6.6 - 5.9 95 0.3 - - - - - - - 0.0
16/02:10am 7.0 - 6.4 96 0.3 - - - - - - - 0.0
16/02:00am 7.0 - 6.3 95 0.3 - - - - - - - 0.0
16/01:50am 7.5 - 6.8 95 0.3 - - - - - - - 0.0
16/01:40am 7.7 - 6.9 95 0.4 - - - - - - - 0.0
16/01:30am 8.1 - 7.3 95 0.4 - - - - - - - 0.0
16/01:20am 8.3 - 7.6 95 0.3 - - - - - - - 0.0
16/01:10am 8.2 - 7.4 95 0.4 - - - - - - - 0.0
16/01:00am 8.6 - 7.7 94 0.4 - - - - - - - 0.0
16/12:50am 8.5 - 7.6 94 0.4 - - - - - - - 0.0
16/12:40am 8.9 - 8.1 95 0.4 - - - - - - - 0.0
16/12:30am 8.8 - 8.0 95 0.4 - - - - - - - 0.0
16/12:20am 8.3 - 7.3 93 0.5 - - - - - - - 0.0
16/12:10am 8.7 - 7.7 93 0.5 - - - - - - - 0.0
16/12:00am 8.9 - 8.1 95 0.4 - - - - - - - 0.0
 
Date/Time
EST
Temp
°C
App
Temp
°C
Dew
Point
°C
Rel
Hum
%
Delta-T
°C
Wind Press
QNH
hPa
Press
MSL
hPa
Rain since
9am
mm
Dir  Spd
km/h
Gust
km/h
Spd
kts
Gust
kts
15/11:50pm 8.5 - 7.5 93 0.5 - - - - - - - 0.0
15/11:40pm 8.7 - 7.5 92 0.6 - - - - - - - 0.0
15/11:30pm 8.9 - 7.9 93 0.5 - - - - - - - 0.0
15/11:20pm 9.0 - 7.8 92 0.6 - - - - - - - 0.0
15/11:10pm 9.3 - 8.0 92 0.6 - - - - - - - 0.0
15/11:00pm 9.5 - 8.4 93 0.5 - - - - - - - 0.0
15/10:50pm 9.5 - 8.3 92 0.6 - - - - - - - 0.0
15/10:40pm 9.7 - 8.3 91 0.7 - - - - - - - 0.0
15/10:30pm 10.1 - 8.4 89 0.8 - - - - - - - 0.0
15/10:20pm 10.0 - 8.4 90 0.8 - - - - - - - 0.0
15/10:10pm 10.1 - 8.7 91 0.7 - - - - - - - 0.0
15/10:00pm 10.1 - 8.5 90 0.8 - - - - - - - 0.0
15/09:50pm 10.6 - 9.2 91 0.7 - - - - - - - 0.0
15/09:40pm 10.2 - 8.6 90 0.8 - - - - - - - 0.0
15/09:30pm 10.5 - 8.6 88 0.9 - - - - - - - 0.0
15/09:20pm 11.1 - 9.2 88 1.0 - - - - - - - 0.0
15/09:10pm 11.3 - 9.1 86 1.1 - - - - - - - 0.0
15/09:00pm 11.7 - 9.5 86 1.1 - - - - - - - 0.0
15/08:50pm 11.9 - 9.6 86 1.2 - - - - - - - 0.0
15/08:40pm 12.0 - 9.6 85 1.2 - - - - - - - 0.0
15/08:30pm 12.8 - 9.8 82 1.5 - - - - - - - 0.0
15/08:20pm 13.0 - 9.8 81 1.7 - - - - - - - 0.0
15/08:10pm 13.5 - 10.2 80 1.7 - - - - - - - 0.0
15/08:00pm 13.9 - 10.3 79 1.9 - - - - - - - 0.0
15/07:50pm 14.3 - 10.2 76 2.2 - - - - - - - 0.0
15/07:40pm 14.8 - 9.9 72 2.6 - - - - - - - 0.0
15/07:30pm 15.0 - 10.2 73 2.5 - - - - - - - 0.0
15/07:20pm 15.2 - 9.8 70 2.8 - - - - - - - 0.0
15/07:10pm 15.4 - 9.7 69 3.0 - - - - - - - 0.0
15/07:00pm 15.9 - 9.8 67 3.2 - - - - - - - 0.0
15/06:50pm 16.4 - 10.3 67 3.3 - - - - - - - 0.0
15/06:40pm 17.2 - 9.8 61 3.9 - - - - - - - 0.0
15/06:30pm 18.0 - 10.1 60 4.2 - - - - - - - 0.0
15/06:20pm 18.9 - 10.2 57 4.7 - - - - - - - 0.0
15/06:10pm 19.2 - 10.2 56 4.9 - - - - - - - 0.0
15/06:00pm 20.3 - 9.9 51 5.6 - - - - - - - 0.0
15/05:50pm 21.3 - 10.1 48 6.1 - - - - - - - 0.0
15/05:40pm 21.6 - 10.0 47 6.3 - - - - - - - 0.0
15/05:30pm 22.0 - 9.9 46 6.6 - - - - - - - 0.0
15/05:20pm 22.5 - 9.9 44 6.9 - - - - - - - 0.0
15/05:10pm 23.0 - 9.7 42 7.3 - - - - - - - 0.0
15/05:00pm 23.6 - 9.5 40 7.7 - - - - - - - 0.0
15/04:50pm 24.2 - 8.9 37 8.3 - - - - - - - 0.0
15/04:40pm 24.7 - 8.5 35 8.8 - - - - - - - 0.0
15/04:30pm 25.1 - 8.1 34 9.1 - - - - - - - 0.0
15/04:20pm 25.7 - 8.1 32 9.5 - - - - - - - 0.0
15/04:10pm 26.2 - 8.2 32 9.8 - - - - - - - 0.0
15/04:00pm 27.3 - 7.0 27 10.8 - - - - - - - 0.0
15/03:50pm 27.9 - -0.6 15 13.4 - - - - - - - 0.0
15/03:40pm 28.2 - -0.6 15 13.5 - - - - - - - 0.0
15/03:30pm 28.2 - -1.4 14 13.7 - - - - - - - 0.0
15/03:20pm 28.3 - -1.2 14 13.7 - - - - - - - 0.0
15/03:10pm 28.3 - -1.2 14 13.7 - - - - - - - 0.0
15/03:00pm 28.1 - -0.5 15 13.5 - - - - - - - 0.0
15/02:50pm 28.1 - -0.5 15 13.5 - - - - - - - 0.0
15/02:40pm 27.6 - -1.3 15 13.4 - - - - - - - 0.0
15/02:30pm 27.5 - -0.8 15 13.2 - - - - - - - 0.0
15/02:20pm 27.6 - -1.1 15 13.3 - - - - - - - 0.0
15/02:10pm 27.8 - -0.1 16 13.2 - - - - - - - 0.0
15/02:00pm 27.5 - -0.6 16 13.1 - - - - - - - 0.0
15/01:50pm 27.3 - -0.6 16 13.0 - - - - - - - 0.0
15/01:40pm 27.4 - -0.1 16 13.0 - - - - - - - 0.0
15/01:30pm 27.3 - 0.6 17 12.7 - - - - - - - 0.0
15/01:20pm 27.3 - 0.0 17 12.9 - - - - - - - 0.0
15/01:10pm 27.2 - 0.3 17 12.8 - - - - - - - 0.0
15/01:00pm 26.9 - 0.8 18 12.5 - - - - - - - 0.0
15/12:50pm 26.6 - 1.1 19 12.2 - - - - - - - 0.0
15/12:40pm 26.2 - 0.6 18 12.1 - - - - - - - 0.0
15/12:30pm 26.0 - 0.7 19 12.0 - - - - - - - 0.0
15/12:20pm 26.0 - 0.7 19 12.0 - - - - - - - 0.0
15/12:10pm 25.6 - 1.0 20 11.7 - - - - - - - 0.0
15/12:00pm 25.5 - 1.4 20 11.5 - - - - - - - 0.0
15/11:50am 25.2 - 1.1 20 11.4 - - - - - - - 0.0
15/11:40am 25.2 - 1.1 20 11.4 - - - - - - - 0.0
15/11:30am 25.1 - 1.2 21 11.3 - - - - - - - 0.0
15/11:20am 25.1 - 1.8 22 11.2 - - - - - - - 0.0
15/11:10am 24.7 - 1.7 22 11.0 - - - - - - - 0.0
15/11:00am 24.6 - 0.4 20 11.3 - - - - - - - 0.0
15/10:50am 24.5 - 2.0 23 10.8 - - - - - - - 0.0
15/10:40am 24.2 - 0.6 21 11.0 - - - - - - - 0.0
15/10:30am 23.9 - 1.9 23 10.5 - - - - - - - 0.0
15/10:20am 23.4 - 2.9 26 9.9 - - - - - - - 0.0
15/10:10am 23.0 - 5.5 32 8.9 - - - - - - - 0.0
15/10:00am 22.9 - 7.5 37 8.1 - - - - - - - 0.0
15/09:50am 22.5 - 8.0 39 7.7 - - - - - - - 0.0
15/09:40am 21.8 - 8.5 42 7.1 - - - - - - - 0.0
15/09:30am 21.0 - 9.1 46 6.4 - - - - - - - 0.0
15/09:20am 20.0 - 9.2 49 5.8 - - - - - - - 0.0
15/09:10am 19.3 - 9.5 53 5.2 - - - - - - - 0.0
15/09:00am 18.9 - 9.2 53 5.1 - - - - - - - 0.0
15/08:50am 18.2 - 9.9 58 4.4 - - - - - - - 0.0
15/08:40am 17.9 - 10.3 61 4.1 - - - - - - - 0.0
15/08:30am 17.5 - 10.0 61 4.0 - - - - - - - 0.0
15/08:20am 16.7 - 9.9 64 3.6 - - - - - - - 0.0
15/08:10am 16.3 - 9.9 66 3.4 - - - - - - - 0.0
15/08:00am 15.9 - 9.9 67 3.2 - - - - - - - 0.0
15/07:50am 15.7 - 10.1 69 3.0 - - - - - - - 0.0
15/07:40am 15.2 - 11.2 77 2.2 - - - - - - - 0.0
15/07:30am 14.5 - 10.8 78 2.0 - - - - - - - 0.0
15/07:20am 13.7 - 10.5 81 1.7 - - - - - - - 0.0
15/07:10am 12.6 - 10.3 86 1.2 - - - - - - - 0.0
15/07:00am 11.5 - 10.0 90 0.8 - - - - - - - 0.0
15/06:50am 10.4 - 9.4 93 0.5 - - - - - - - 0.0
15/06:40am 9.5 - 8.6 94 0.4 - - - - - - - 0.0
15/06:30am 8.8 - 8.0 95 0.4 - - - - - - - 0.0
15/06:20am 8.6 - 7.7 94 0.4 - - - - - - - 0.0
15/06:10am 8.5 - 7.6 94 0.4 - - - - - - - 0.0
15/06:00am 9.2 - 8.3 94 0.4 - - - - - - - 0.0
15/05:50am 9.4 - 8.4 93 0.5 - - - - - - - 0.0
15/05:40am 9.8 - 8.8 93 0.5 - - - - - - - 0.0
15/05:30am 10.1 - 8.8 92 0.6 - - - - - - - 0.0
15/05:20am 10.6 - 9.4 92 0.6 - - - - - - - 0.0
15/05:10am 10.8 - 9.6 92 0.6 - - - - - - - 0.0
15/05:00am 11.0 - 9.7 92 0.7 - - - - - - - 0.0
15/04:50am 11.1 - 9.8 92 0.7 - - - - - - - 0.0
15/04:40am 11.2 - 9.9 92 0.7 - - - - - - - 0.0
15/04:30am 11.1 - 9.8 92 0.7 - - - - - - - 0.0
15/04:20am 11.2 - 9.8 91 0.7 - - - - - - - 0.0
15/04:10am 11.4 - 9.8 90 0.8 - - - - - - - 0.0
15/04:00am 11.8 - 10.2 90 0.8 - - - - - - - 0.0
15/03:50am 11.8 - 10.1 89 0.9 - - - - - - - 0.0
15/03:40am 11.7 - 10.1 90 0.8 - - - - - - - 0.0
15/03:30am 11.8 - 10.1 89 0.9 - - - - - - - 0.0
15/03:20am 11.9 - 10.2 89 0.9 - - - - - - - 0.0
15/03:10am 11.8 - 10.2 90 0.8 - - - - - - - 0.0
15/03:00am 11.5 - 10.0 90 0.8 - - - - - - - 0.0
15/02:50am 11.4 - 10.0 91 0.7 - - - - - - - 0.0
15/02:40am 11.3 - 9.9 91 0.7 - - - - - - - 0.0
15/02:30am 11.3 - 9.9 91 0.7 - - - - - - - 0.0
15/02:20am 11.3 - 9.9 91 0.7 - - - - - - - 0.0
15/02:10am 11.3 - 9.9 91 0.7 - - - - - - - 0.0
15/02:00am 11.4 - 9.8 90 0.8 - - - - - - - 0.0
15/01:50am 11.7 - 10.0 89 0.9 - - - - - - - 0.0
15/01:40am 12.0 - 10.2 89 0.9 - - - - - - - 0.0
15/01:30am 12.3 - 10.5 89 0.9 - - - - - - - 0.0
15/01:20am 12.5 - 10.5 88 1.0 - - - - - - - 0.0
15/01:10am 12.8 - 10.5 86 1.2 - - - - - - - 0.0
15/01:00am 13.0 - 10.9 87 1.1 - - - - - - - 0.0
15/12:50am 13.1 - 11.0 87 1.1 - - - - - - - 0.0
15/12:40am 13.5 - 11.1 85 1.3 - - - - - - - 0.0
15/12:30am 13.8 - 11.0 83 1.5 - - - - - - - 0.0
15/12:20am 13.9 - 10.9 82 1.6 - - - - - - - 0.0
15/12:10am 13.8 - 10.9 83 1.5 - - - - - - - 0.0
15/12:00am 13.7 - 10.8 83 1.5 - - - - - - - 0.0
 
Date/Time
EST
Temp
°C
App
Temp
°C
Dew
Point
°C
Rel
Hum
%
Delta-T
°C
Wind Press
QNH
hPa
Press
MSL
hPa
Rain since
9am
mm
Dir  Spd
km/h
Gust
km/h
Spd
kts
Gust
kts
14/11:50pm 13.6 - 10.8 83 1.5 - - - - - - - 0.0
14/11:40pm 13.5 - 10.7 83 1.5 - - - - - - - 0.0
14/11:30pm 13.5 - 10.8 84 1.4 - - - - - - - 0.0
14/11:20pm 13.4 - 10.6 83 1.5 - - - - - - - 0.0
14/11:10pm 13.0 - 10.5 85 1.3 - - - - - - - 0.0
14/11:00pm 12.8 - 10.4 85 1.3 - - - - - - - 0.0
14/10:50pm 12.5 - 10.2 86 1.2 - - - - - - - 0.0
14/10:40pm 12.2 - 10.1 87 1.1 - - - - - - - 0.0
14/10:30pm 11.8 - 9.8 87 1.0 - - - - - - - 0.0
14/10:20pm 11.4 - 9.5 88 1.0 - - - - - - - 0.0
14/10:10pm 11.5 - 9.4 87 1.1 - - - - - - - 0.0
14/10:00pm 11.7 - 9.6 87 1.1 - - - - - - - 0.0
14/09:50pm 11.9 - 9.6 86 1.2 - - - - - - - 0.0
14/09:40pm 12.0 - 9.6 85 1.2 - - - - - - - 0.0
14/09:30pm 12.6 - 9.6 82 1.5 - - - - - - - 0.0
14/09:20pm 12.9 - 10.2 84 1.4 - - - - - - - 0.0
14/09:10pm 13.6 - 10.7 82 1.5 - - - - - - - 0.0
14/09:00pm 14.2 - 10.8 80 1.8 - - - - - - - 0.0
14/08:50pm 14.5 - 11.1 80 1.8 - - - - - - - 0.0
14/08:40pm 14.7 - 11.2 79 1.9 - - - - - - - 0.0
14/08:30pm 14.8 - 11.2 79 1.9 - - - - - - - 0.0
14/08:20pm 15.1 - 11.2 77 2.1 - - - - - - - 0.0
14/08:10pm 15.6 - 11.5 76 2.2 - - - - - - - 0.0
14/08:00pm 16.4 - 11.4 72 2.7 - - - - - - - 0.0
14/07:50pm 16.8 - 11.3 70 3.0 - - - - - - - 0.0
14/07:40pm 16.9 - 11.4 70 3.0 - - - - - - - 0.0
14/07:30pm 17.1 - 11.4 69 3.1 - - - - - - - 0.0
14/07:20pm 17.2 - 11.4 68 3.2 - - - - - - - 0.0
14/07:10pm 17.3 - 11.7 69 3.1 - - - - - - - 0.0
14/07:00pm 17.4 - 11.6 69 3.2 - - - - - - - 0.0
14/06:50pm 17.5 - 11.6 68 3.2 - - - - - - - 0.0
14/06:40pm 17.7 - 11.7 68 3.3 - - - - - - - 0.0
14/06:30pm 17.9 - 11.7 67 3.4 - - - - - - - 0.0
14/06:20pm 18.1 - 11.7 66 3.5 - - - - - - - 0.0
14/06:10pm 18.1 - 11.7 66 3.5 - - - - - - - 0.0
14/06:00pm 18.2 - 11.7 66 3.6 - - - - - - - 0.0
14/05:50pm 18.3 - 11.7 65 3.7 - - - - - - - 0.0
14/05:40pm 18.3 - 11.7 65 3.7 - - - - - - - 0.0
14/05:30pm 18.5 - 11.7 64 3.8 - - - - - - - 0.0
14/05:20pm 18.9 - 11.7 63 4.0 - - - - - - - 0.0
14/05:10pm 19.2 - 11.8 62 4.1 - - - - - - - 0.0
14/05:00pm 19.6 - 11.9 61 4.3 - - - - - - - 0.0
14/04:50pm 20.1 - 11.9 59 4.6 - - - - - - - 0.0
14/04:40pm 20.8 - 11.9 56 5.0 - - - - - - - 0.0
14/04:30pm 21.3 - 11.7 54 5.4 - - - - - - - 0.0
14/04:20pm 21.8 - 11.5 52 5.8 - - - - - - - 0.0
14/04:10pm 22.1 - 11.3 50 6.0 - - - - - - - 0.0
14/04:00pm 22.1 - 11.3 50 6.0 - - - - - - - 0.0
14/03:50pm 22.9 - 11.2 47 6.6 - - - - - - - 0.0
14/03:40pm 23.0 - 11.0 46 6.7 - - - - - - - 0.0
14/03:30pm 23.6 - 8.6 38 8.1 - - - - - - - 0.0
14/03:20pm 24.0 - 6.2 31 9.2 - - - - - - - 0.0
14/03:10pm 25.1 - 4.9 27 10.3 - - - - - - - 0.0
14/03:00pm 25.8 - 2.4 22 11.4 - - - - - - - 0.0
14/02:50pm 26.1 - 1.8 20 11.7 - - - - - - - 0.0
14/02:40pm 26.8 - 1.7 19 12.2 - - - - - - - 0.0
14/02:30pm 27.2 - -1.2 15 13.1 - - - - - - - 0.0
14/02:20pm 27.3 - -1.7 15 13.3 - - - - - - - 0.0
14/02:10pm 27.4 - -1.4 15 13.3 - - - - - - - 0.0
14/02:00pm 27.6 - -1.7 14 13.4 - - - - - - - 0.0
14/01:50pm 27.3 - -3.2 13 13.6 - - - - - - - 0.0
14/01:40pm 27.4 - -3.0 13 13.6 - - - - - - - 0.0
14/01:30pm 27.8 - -3.1 13 13.9 - - - - - - - 0.0
14/01:20pm 27.7 - -2.8 13 13.7 - - - - - - - 0.0
14/01:10pm 27.9 - -4.5 11 14.2 - - - - - - - 0.0
14/01:00pm 27.7 - -5.3 11 14.2 - - - - - - - 0.0
14/12:50pm 27.8 - -4.5 12 14.1 - - - - - - - 0.0
14/12:40pm 27.6 - -5.1 11 14.1 - - - - - - - 0.0
14/12:30pm 27.5 - -4.8 11 14.0 - - - - - - - 0.0
14/12:20pm 27.6 - -6.1 10 14.3 - - - - - - - 0.0
14/12:10pm 27.6 - -5.8 11 14.2 - - - - - - - 0.0
14/12:00pm 27.8 - -6.3 10 14.4 - - - - - - - 0.0
14/11:50am 27.7 - -6.3 10 14.4 - - - - - - - 0.0
14/11:40am 27.6 - -5.3 11 14.2 - - - - - - - 0.0
14/11:30am 27.3 - -5.6 11 14.0 - - - - - - - 0.0
14/11:20am 27.2 - -5.8 11 14.0 - - - - - - - 0.0
14/11:10am 26.7 - -5.2 12 13.6 - - - - - - - 0.0
14/11:00am 27.0 - -5.3 11 13.8 - - - - - - - 0.0
14/10:50am 27.6 - -5.1 11 14.1 - - - - - - - 0.0
14/10:40am 27.1 - -6.5 10 14.1 - - - - - - - 0.0
14/10:30am 26.7 - -3.9 13 13.4 - - - - - - - 0.0
14/10:20am 26.2 - -5.9 11 13.5 - - - - - - - 0.0
14/10:10am 26.2 - -4.5 13 13.2 - - - - - - - 0.0
14/10:00am 25.4 - -5.5 12 13.0 - - - - - - - 0.0
14/09:50am 24.3 - -5.6 13 12.4 - - - - - - - 0.0
14/09:40am 23.9 - -2.6 17 11.6 - - - - - - - 0.0
14/09:30am 23.5 - -1.9 18 11.2 - - - - - - - 0.0
14/09:20am 23.0 - -2.3 18 11.1 - - - - - - - 0.0
14/09:10am 22.5 - -0.8 21 10.4 - - - - - - - 0.0
14/09:00am 21.7 - 0.2 24 9.8 - - - - - - - 0.0
14/08:50am 21.3 - -0.5 23 9.7 - - - - - - - 0.0
14/08:40am 20.0 - -1.0 24 9.2 - - - - - - - 0.0
14/08:30am 17.5 - 6.5 48 5.5 - - - - - - - 0.0
14/08:20am 15.9 - 9.2 64 3.5 - - - - - - - 0.0
14/08:10am 15.0 - 9.6 70 2.8 - - - - - - - 0.0
14/08:00am 13.7 - 10.2 79 1.8 - - - - - - - 0.0
14/07:50am 12.6 - 11.3 92 0.7 - - - - - - - 0.0
14/07:40am 11.7 - 10.9 95 0.4 - - - - - - - 0.0
14/07:30am 10.5 - 10.0 97 0.3 - - - - - - - 0.0
14/07:20am 9.6 - 9.1 97 0.2 - - - - - - - 0.0
14/07:10am 8.7 - 8.3 97 0.2 - - - - - - - 0.0
14/07:00am 8.0 - 7.6 97 0.2 - - - - - - - 0.0
14/06:50am 7.0 - 6.6 97 0.2 - - - - - - - 0.0
14/06:40am 6.4 - 6.0 97 0.2 - - - - - - - 0.0
14/06:30am 5.8 - 5.4 97 0.2 - - - - - - - 0.0
14/06:20am 5.1 - 4.7 97 0.2 - - - - - - - 0.0
14/06:10am 5.3 - 4.9 97 0.2 - - - - - - - 0.0
14/06:00am 4.7 - 4.4 98 0.1 - - - - - - - 0.0
14/05:50am 4.3 - 3.9 97 0.2 - - - - - - - 0.0
14/05:40am 4.6 - 4.2 97 0.2 - - - - - - - 0.0
14/05:30am 4.6 - 4.2 97 0.2 - - - - - - - 0.0
14/05:20am 4.8 - 4.4 97 0.2 - - - - - - - 0.0
14/05:10am 4.9 - 4.5 97 0.2 - - - - - - - 0.0
14/05:00am 5.1 - 4.7 97 0.2 - - - - - - - 0.0
14/04:50am 5.3 - 4.9 97 0.2 - - - - - - - 0.0
14/04:40am 5.9 - 5.5 97 0.2 - - - - - - - 0.0
14/04:30am 6.0 - 5.5 97 0.2 - - - - - - - 0.0
14/04:20am 5.6 - 5.2 97 0.2 - - - - - - - 0.0
14/04:10am 6.6 - 6.1 97 0.2 - - - - - - - 0.0
14/04:00am 6.6 - 6.2 97 0.2 - - - - - - - 0.0
14/03:50am 7.1 - 6.6 97 0.2 - - - - - - - 0.0
14/03:40am 7.4 - 7.0 97 0.2 - - - - - - - 0.0
14/03:30am 7.6 - 7.2 97 0.2 - - - - - - - 0.0
14/03:20am 7.9 - 7.4 97 0.2 - - - - - - - 0.0
14/03:10am 8.1 - 7.6 97 0.2 - - - - - - - 0.0
14/03:00am 7.6 - 7.1 97 0.2 - - - - - - - 0.0
14/02:50am 7.7 - 7.2 97 0.2 - - - - - - - 0.0
14/02:40am 7.8 - 7.2 96 0.3 - - - - - - - 0.0
14/02:30am 8.3 - 7.8 97 0.2 - - - - - - - 0.0
14/02:20am 7.9 - 7.3 96 0.3 - - - - - - - 0.0
14/02:10am 7.9 - 7.3 96 0.3 - - - - - - - 0.0
14/02:00am 8.0 - 7.4 96 0.3 - - - - - - - 0.0
14/01:50am 8.1 - 7.4 95 0.3 - - - - - - - 0.0
14/01:40am 8.3 - 7.7 96 0.3 - - - - - - - 0.0
14/01:30am 8.6 - 7.9 95 0.3 - - - - - - - 0.0
14/01:20am 8.5 - 7.9 96 0.3 - - - - - - - 0.0
14/01:10am 8.4 - 7.7 95 0.3 - - - - - - - 0.0
14/01:00am 8.2 - 7.4 95 0.4 - - - - - - - 0.0
14/12:50am 8.1 - 7.2 94 0.4 - - - - - - - 0.0
14/12:40am 8.5 - 7.7 95 0.4 - - - - - - - 0.0
14/12:30am 8.5 - 7.5 93 0.5 - - - - - - - 0.0
14/12:20am 8.7 - 7.6 93 0.5 - - - - - - - 0.0
14/12:10am 9.2 - 8.1 93 0.5 - - - - - - - 0.0
14/12:00am 9.6 - 8.6 93 0.5 - - - - - - - 0.0
 
Date/Time
EST
Temp
°C
App
Temp
°C
Dew
Point
°C
Rel
Hum
%
Delta-T
°C
Wind Press
QNH
hPa
Press
MSL
hPa
Rain since
9am
mm
Dir  Spd
km/h
Gust
km/h
Spd
kts
Gust
kts
13/11:50pm 9.5 - 8.4 93 0.5 - - - - - - - 0.0
13/11:40pm 9.9 - 8.4 90 0.7 - - - - - - - 0.0
13/11:30pm 10.7 - 9.2 90 0.8 - - - - - - - 0.0
13/11:20pm 10.5 - 9.2 92 0.7 - - - - - - - 0.0
13/11:10pm 10.9 - 9.1 89 0.9 - - - - - - - 0.0
13/11:00pm 11.6 - 10.0 90 0.8 - - - - - - - 0.0
13/10:50pm 12.2 - 10.1 87 1.1 - - - - - - - 0.0
13/10:40pm 13.2 - 10.8 85 1.3 - - - - - - - 0.0
13/10:30pm 13.9 - 11.1 83 1.5 - - - - - - - 0.0
13/10:20pm 14.5 - 11.6 83 1.6 - - - - - - - 0.0
13/10:10pm 14.7 - 11.5 81 1.7 - - - - - - - 0.0
13/10:00pm 14.7 - 11.5 81 1.7 - - - - - - - 0.0
13/09:50pm 14.6 - 11.5 82 1.7 - - - - - - - 0.0
13/09:40pm 14.6 - 11.4 81 1.7 - - - - - - - 0.0
13/09:30pm 14.4 - 11.3 81 1.7 - - - - - - - 0.0
13/09:20pm 14.2 - 11.4 83 1.5 - - - - - - - 0.0
13/09:10pm 14.1 - 11.2 83 1.6 - - - - - - - 0.0
13/09:00pm 13.9 - 11.1 83 1.5 - - - - - - - 0.0
13/08:50pm 13.8 - 11.0 83 1.5 - - - - - - - 0.0
13/08:40pm 13.7 - 11.0 84 1.4 - - - - - - - 0.0
13/08:30pm 13.7 - 10.9 83 1.5 - - - - - - - 0.0
13/08:20pm 13.7 - 11.0 84 1.4 - - - - - - - 0.0
13/08:10pm 14.0 - 11.0 82 1.6 - - - - - - - 0.0
13/08:00pm 14.1 - 11.1 82 1.6 - - - - - - - 0.0
13/07:50pm 14.3 - 11.3 82 1.6 - - - - - - - 0.0
13/07:40pm 14.5 - 11.1 80 1.8 - - - - - - - 0.0
13/07:30pm 15.0 - 11.4 79 1.9 - - - - - - - 0.0
13/07:20pm 15.6 - 11.5 76 2.2 - - - - - - - 0.0
13/07:10pm 16.2 - 12.0 76 2.3 - - - - - - - 0.0
13/07:00pm 16.7 - 12.1 74 2.5 - - - - - - - 0.0
13/06:50pm 17.2 - 11.9 71 2.9 - - - - - - - 0.0
13/06:40pm 17.4 - 12.0 70 3.0 - - - - - - - 0.0
13/06:30pm 17.7 - 12.1 69 3.1 - - - - - - - 0.0
13/06:20pm 18.0 - 12.1 68 3.3 - - - - - - - 0.0
13/06:10pm 18.3 - 12.1 67 3.5 - - - - - - - 0.0
13/06:00pm 18.6 - 11.9 65 3.7 - - - - - - - 0.0
13/05:50pm 18.9 - 11.9 64 3.9 - - - - - - - 0.0
13/05:40pm 19.3 - 11.7 61 4.2 - - - - - - - 0.0
13/05:30pm 19.5 - 11.5 60 4.4 - - - - - - - 0.0
13/05:20pm 19.8 - 11.4 58 4.7 - - - - - - - 0.0
13/05:10pm 20.1 - 11.3 57 4.9 - - - - - - - 0.0
13/05:00pm 20.7 - 11.3 55 5.2 - - - - - - - 0.0
13/04:50pm 21.3 - 11.2 52 5.6 - - - - - - - 0.0
13/04:40pm 21.9 - 11.2 50 6.0 - - - - - - - 0.0
13/04:30pm 22.5 - 11.0 48 6.4 - - - - - - - 0.0
13/04:20pm 23.0 - 10.9 46 6.8 - - - - - - - 0.0
13/04:10pm 23.1 - 10.5 45 7.0 - - - - - - - 0.0
13/04:00pm 23.2 - 10.3 44 7.1 - - - - - - - 0.0
13/03:50pm 23.5 - 10.1 42 7.4 - - - - - - - 0.0
13/03:40pm 24.3 - 10.1 40 7.9 - - - - - - - 0.0
13/03:30pm 24.6 - 9.8 39 8.2 - - - - - - - 0.0
13/03:20pm 24.7 - 9.7 38 8.3 - - - - - - - 0.0
13/03:10pm 24.7 - 9.6 38 8.3 - - - - - - - 0.0
13/03:00pm 25.0 - 9.8 38 8.4 - - - - - - - 0.0
13/02:50pm 25.2 - 9.4 36 8.7 - - - - - - - 0.0
13/02:40pm 25.6 - 8.9 34 9.1 - - - - - - - 0.0
13/02:30pm 25.5 - 8.3 33 9.3 - - - - - - - 0.0
13/02:20pm 25.6 - 8.3 33 9.4 - - - - - - - 0.0
13/02:10pm 25.5 - 7.5 31 9.6 - - - - - - - 0.0
13/02:00pm 25.8 - 7.9 32 9.6 - - - - - - - 0.0
13/01:50pm 25.6 - 7.2 31 9.8 - - - - - - - 0.0
13/01:40pm 25.7 - 7.9 32 9.6 - - - - - - - 0.0
13/01:30pm 25.6 - 7.0 30 9.8 - - - - - - - 0.0
13/01:20pm 25.7 - 8.0 32 9.5 - - - - - - - 0.0
13/01:10pm 26.1 - 5.9 27 10.5 - - - - - - - 0.0
13/01:00pm 26.2 - 5.0 25 10.9 - - - - - - - 0.0
13/12:50pm 25.9 - 1.3 20 11.8 - - - - - - - 0.0
13/12:40pm 26.0 - 0.4 18 12.1 - - - - - - - 0.0
13/12:30pm 26.1 - -0.7 17 12.4 - - - - - - - 0.0
13/12:20pm 26.1 - -1.0 17 12.4 - - - - - - - 0.0
13/12:10pm 26.3 - -1.5 16 12.7 - - - - - - - 0.0
13/12:00pm 26.0 - -2.1 15 12.6 - - - - - - - 0.0
13/11:50am 26.0 - -1.9 16 12.6 - - - - - - - 0.0
13/11:40am 25.9 - -1.4 16 12.4 - - - - - - - 0.0
13/11:30am 25.4 - -2.3 16 12.4 - - - - - - - 0.0
13/11:20am 25.8 - -3.2 14 12.8 - - - - - - - 0.0
13/11:10am 25.4 - -3.0 15 12.5 - - - - - - - 0.0
13/11:00am 25.5 - -4.0 14 12.8 - - - - - - - 0.0
13/10:50am 25.2 - -4.6 13 12.7 - - - - - - - 0.0
13/10:40am 24.8 - -4.3 14 12.4 - - - - - - - 0.0
13/10:30am 25.0 - -4.2 14 12.5 - - - - - - - 0.0
13/10:20am 25.2 - -4.9 13 12.8 - - - - - - - 0.0

Other formats

Comma delimited format used in spreadsheet applications
http://www.bom.gov.au/fwo/IDN60801/IDN60801.99110.axf

JavaScript Object Notation format (JSON) in row-major order
http://www.bom.gov.au/fwo/IDN60801/IDN60801.99110.json

Data quality

Most of these data are generated automatically and are frequently updated. Quality checks on data are not normally performed. It is possible for incorrect values to appear. Refer to information at About Latest Weather Observations and please check the disclaimer before using these data.